createdAt,value
2023-01-11T00:01:23.751Z,5.37
2023-01-11T00:03:53.677Z,5.40
2023-01-11T00:06:22.490Z,5.39
2023-01-11T00:08:51.094Z,5.42
2023-01-11T00:11:20.209Z,5.46
2023-01-11T00:13:48.891Z,5.52
2023-01-11T00:16:17.869Z,5.53
2023-01-11T00:18:46.498Z,5.57
2023-01-11T00:21:16.510Z,5.57
2023-01-11T00:23:45.168Z,5.58
2023-01-11T00:26:14.499Z,5.65
2023-01-11T00:28:43.262Z,5.64
2023-01-11T00:31:12.301Z,5.67
2023-01-11T00:33:40.943Z,5.66
2023-01-11T00:36:10.300Z,5.69
2023-01-11T00:38:51.288Z,5.66
2023-01-11T00:41:38.189Z,5.64
2023-01-11T00:44:24.907Z,5.76
2023-01-11T00:47:11.381Z,5.78
2023-01-11T00:49:40.145Z,5.82
2023-01-11T00:52:10.037Z,5.86
2023-01-11T00:54:40.831Z,5.90
2023-01-11T00:57:10.269Z,5.91
2023-01-11T00:59:40.561Z,6.00
2023-01-11T01:02:10.045Z,6.02
2023-01-11T01:04:39.154Z,6.05
2023-01-11T01:07:09.019Z,6.08
2023-01-11T01:09:39.067Z,6.16
2023-01-11T01:12:09.124Z,6.18
2023-01-11T01:14:37.221Z,6.17
2023-01-11T01:17:08.076Z,6.29
2023-01-11T01:19:38.829Z,6.32
2023-01-11T01:22:07.535Z,6.39
2023-01-11T01:24:36.601Z,6.35
2023-01-11T01:27:06.698Z,6.31
2023-01-11T01:29:35.402Z,6.40
2023-01-11T01:32:03.999Z,6.45
2023-01-11T01:34:32.695Z,6.50
2023-01-11T01:37:01.328Z,6.54
2023-01-11T01:39:30.360Z,6.56
2023-01-11T01:41:59.113Z,6.58
2023-01-11T01:45:01.416Z,6.63
2023-01-11T01:47:38.539Z,6.61
2023-01-11T01:50:12.357Z,6.59
2023-01-11T01:52:41.407Z,6.60
2023-01-11T01:55:13.491Z,6.63
2023-01-11T01:57:43.062Z,6.61
2023-01-11T02:00:14.606Z,6.64
2023-01-11T02:02:45.528Z,6.64
2023-01-11T02:05:15.346Z,6.56
2023-01-11T02:07:44.463Z,6.55
2023-01-11T02:10:16.194Z,6.60
2023-01-11T02:12:48.102Z,6.53
2023-01-11T02:15:18.752Z,6.57
2023-01-11T02:17:47.572Z,6.58
2023-01-11T02:20:47.473Z,6.56
2023-01-11T02:23:53.163Z,6.55
2023-01-11T02:26:42.548Z,6.59
2023-01-11T02:29:18.236Z,6.63
2023-01-11T02:31:51.226Z,6.68
2023-01-11T02:34:31.398Z,6.64
2023-01-11T02:37:09.709Z,6.61
2023-01-11T02:39:46.287Z,6.65
2023-01-11T02:42:39.310Z,6.71
2023-01-11T02:45:17.855Z,6.78
2023-01-11T02:47:50.692Z,6.79
2023-01-11T02:50:23.788Z,6.85
2023-01-11T02:52:56.389Z,6.88
2023-01-11T02:55:27.758Z,6.89
2023-01-11T02:57:58.807Z,6.90
2023-01-11T03:00:29.110Z,6.94
2023-01-11T03:03:09.499Z,6.97
2023-01-11T03:05:41.607Z,6.95
2023-01-11T03:08:41.408Z,6.94
2023-01-11T03:11:14.295Z,7.05
2023-01-11T03:14:00.127Z,7.07
2023-01-11T03:16:34.145Z,7.09
2023-01-11T03:19:14.776Z,7.13
2023-01-11T03:21:50.108Z,7.16
2023-01-11T03:24:28.130Z,7.19
2023-01-11T03:27:06.936Z,7.22
2023-01-11T03:29:39.290Z,7.25
2023-01-11T03:32:20.370Z,7.29
2023-01-11T03:34:54.509Z,7.32
2023-01-11T03:37:26.791Z,7.28
2023-01-11T03:40:00.729Z,7.34
2023-01-11T03:42:29.798Z,7.34
2023-01-11T03:44:59.938Z,7.35
2023-01-11T03:47:31.167Z,7.39
2023-01-11T03:50:02.672Z,7.43
2023-01-11T03:52:34.922Z,7.46
2023-01-11T03:55:05.779Z,7.48
2023-01-11T03:57:36.454Z,7.51
2023-01-11T04:00:06.803Z,7.51
2023-01-11T04:02:40.244Z,7.53
2023-01-11T04:05:10.786Z,7.53
2023-01-11T04:07:39.444Z,7.51
2023-01-11T04:10:09.553Z,7.58
2023-01-11T04:12:38.275Z,7.54
2023-01-11T04:15:09.365Z,7.55
2023-01-11T04:17:39.561Z,7.56
2023-01-11T04:20:09.696Z,7.56
2023-01-11T04:22:38.435Z,7.56
2023-01-11T04:25:08.872Z,7.53
2023-01-11T04:27:37.731Z,7.55
2023-01-11T04:30:07.201Z,7.56
2023-01-11T04:32:35.970Z,7.59
2023-01-11T04:35:06.990Z,7.65
2023-01-11T04:37:36.807Z,7.63
2023-01-11T04:40:06.114Z,7.63
2023-01-11T04:42:33.957Z,7.60
2023-01-11T04:45:05.384Z,7.63
2023-01-11T04:47:34.339Z,7.62
2023-01-11T04:50:03.117Z,7.62
2023-01-11T04:52:33.188Z,7.62
2023-01-11T04:55:02.018Z,7.57
2023-01-11T04:57:30.914Z,7.59
2023-01-11T04:59:59.859Z,7.57
2023-01-11T05:02:28.935Z,7.57
2023-01-11T05:04:57.650Z,7.55
2023-01-11T05:07:26.421Z,7.60
2023-01-11T05:09:56.441Z,7.54
2023-01-11T05:12:25.203Z,7.56
2023-01-11T05:14:53.877Z,7.56
2023-01-11T05:17:22.645Z,7.51
2023-01-11T05:19:51.328Z,7.51
2023-01-11T05:22:20.139Z,7.49
2023-01-11T05:24:48.754Z,7.51
2023-01-11T05:27:18.946Z,7.49
2023-01-11T05:29:47.652Z,7.42
2023-01-11T05:32:16.435Z,7.46
2023-01-11T05:34:45.144Z,7.45
2023-01-11T05:37:14.106Z,7.42
2023-01-11T05:39:42.782Z,7.40
2023-01-11T05:42:11.341Z,7.37
2023-01-11T05:45:09.048Z,7.36
2023-01-11T05:47:37.708Z,7.34
2023-01-11T05:50:07.026Z,7.34
2023-01-11T05:52:36.055Z,7.33
2023-01-11T05:55:05.012Z,7.33
2023-01-11T05:57:33.713Z,7.32
2023-01-11T06:00:04.152Z,7.32
2023-01-11T06:02:36.410Z,7.31
2023-01-11T06:05:05.541Z,7.38
2023-01-11T06:07:34.204Z,7.32
2023-01-11T06:10:02.929Z,7.28
2023-01-11T06:12:31.903Z,7.23
2023-01-11T06:15:00.696Z,7.23
2023-01-11T06:17:30.678Z,7.21
2023-01-11T06:19:59.836Z,7.21
2023-01-11T06:22:28.517Z,7.25
2023-01-11T06:24:57.130Z,7.28
2023-01-11T06:27:25.856Z,7.24
2023-01-11T06:29:54.444Z,7.23
2023-01-11T06:32:23.061Z,7.25
2023-01-11T06:34:53.025Z,7.28
2023-01-11T06:37:21.615Z,7.28
2023-01-11T06:39:50.175Z,7.26
2023-01-11T06:42:18.812Z,7.27
2023-01-11T06:44:47.419Z,7.22
2023-01-11T06:47:16.047Z,7.23
2023-01-11T06:49:44.663Z,7.24
2023-01-11T06:52:14.753Z,7.26
2023-01-11T06:54:43.325Z,7.24
2023-01-11T06:57:12.309Z,7.23
2023-01-11T06:59:41.814Z,7.23
2023-01-11T07:02:11.846Z,7.22
2023-01-11T07:04:40.444Z,7.22
2023-01-11T07:07:09.110Z,7.22
2023-01-11T07:09:39.354Z,7.24
2023-01-11T07:12:08.013Z,7.29
2023-01-11T07:14:36.737Z,7.31
2023-01-11T07:17:05.315Z,7.32
2023-01-11T07:19:33.917Z,7.29
2023-01-11T07:22:02.534Z,7.33
2023-01-11T07:24:31.330Z,7.42
2023-01-11T07:27:02.879Z,7.37
2023-01-11T07:29:31.656Z,7.31
2023-01-11T07:32:00.503Z,7.28
2023-01-11T07:34:29.127Z,7.29
2023-01-11T07:36:57.730Z,7.32
2023-01-11T07:39:38.521Z,7.33
2023-01-11T07:42:30.547Z,7.40
2023-01-11T07:44:59.224Z,7.42
2023-01-11T07:47:28.162Z,7.51
2023-01-11T07:49:56.786Z,7.55
2023-01-11T07:52:25.599Z,7.58
2023-01-11T07:54:54.360Z,7.65
2023-01-11T07:57:24.301Z,7.71
2023-01-11T07:59:52.972Z,7.69
2023-01-11T08:02:21.521Z,7.72
2023-01-11T08:04:50.467Z,7.84
2023-01-11T08:07:19.087Z,7.87
2023-01-11T08:09:47.850Z,7.93
2023-01-11T08:12:33.998Z,7.94
2023-01-11T08:15:04.353Z,8.02
2023-01-11T08:17:35.717Z,8.02
2023-01-11T08:20:04.482Z,8.06
2023-01-11T08:22:33.298Z,8.09
2023-01-11T08:25:02.036Z,8.12
2023-01-11T08:27:30.702Z,8.15
2023-01-11T08:29:59.330Z,8.13
2023-01-11T08:32:31.025Z,8.18
2023-01-11T08:34:59.594Z,8.23
2023-01-11T08:37:28.304Z,8.22
2023-01-11T08:39:58.326Z,8.22
2023-01-11T08:42:27.117Z,8.30
2023-01-11T08:44:55.802Z,8.33
2023-01-11T08:47:24.449Z,8.32
2023-01-11T08:49:54.399Z,8.40
2023-01-11T08:52:23.619Z,8.40
2023-01-11T08:54:52.231Z,8.46
2023-01-11T08:57:21.709Z,8.55
2023-01-11T08:59:50.320Z,8.60
2023-01-11T09:02:19.192Z,8.57
2023-01-11T09:04:47.941Z,8.56
2023-01-11T09:07:17.965Z,8.55
2023-01-11T09:09:47.609Z,8.56
2023-01-11T09:12:16.451Z,8.53
2023-01-11T09:14:45.292Z,8.50
2023-01-11T09:17:14.030Z,8.48
2023-01-11T09:19:42.684Z,8.49
2023-01-11T09:22:11.500Z,8.49
2023-01-11T09:24:41.443Z,8.47
2023-01-11T09:27:11.455Z,8.48
2023-01-11T09:29:40.451Z,8.50
2023-01-11T09:32:09.195Z,8.50
2023-01-11T09:34:37.928Z,8.50
2023-01-11T09:37:07.091Z,8.52
2023-01-11T09:39:37.108Z,8.52
2023-01-11T09:42:32.383Z,8.60
2023-01-11T09:45:07.173Z,8.62
2023-01-11T09:47:40.818Z,8.62
2023-01-11T09:50:16.457Z,8.62
2023-01-11T09:52:47.502Z,8.60
2023-01-11T09:55:22.966Z,8.62
2023-01-11T09:58:03.014Z,8.61
2023-01-11T10:00:38.428Z,8.62
2023-01-11T10:03:38.494Z,8.69
2023-01-11T10:06:14.902Z,8.80
2023-01-11T10:18:29.669Z,8.80
2023-01-11T10:18:30.456Z,8.79
2023-01-11T10:21:07.746Z,8.82
2023-01-11T10:23:47.416Z,8.85
2023-01-11T10:26:27.157Z,8.88
2023-01-11T10:29:17.439Z,8.96
2023-01-11T10:32:09.580Z,9.05
2023-01-11T10:34:59.734Z,9.14
2023-01-11T10:37:54.385Z,9.28
2023-01-11T10:40:58.728Z,9.35
2023-01-11T10:43:29.357Z,9.42
2023-01-11T10:46:00.574Z,9.44
2023-01-11T10:48:33.444Z,9.48
2023-01-11T10:51:06.618Z,9.52
2023-01-11T10:53:38.149Z,9.55
2023-01-11T10:56:15.256Z,9.53
2023-01-11T10:59:18.560Z,9.62
2023-01-11T11:01:54.966Z,9.63
2023-01-11T11:04:40.392Z,9.63
2023-01-11T11:07:11.259Z,9.63
2023-01-11T11:09:47.004Z,9.65
2023-01-11T11:12:20.666Z,9.71
2023-01-11T11:14:52.816Z,9.74
2023-01-11T11:17:26.190Z,9.74
2023-01-11T11:19:56.458Z,9.77
2023-01-11T11:22:25.567Z,9.79
2023-01-11T11:24:59.892Z,9.79
2023-01-11T11:27:31.874Z,9.81
2023-01-11T11:30:00.715Z,9.83
2023-01-11T11:32:33.142Z,9.83
2023-01-11T11:35:04.481Z,9.81
2023-01-11T11:37:34.926Z,9.78
2023-01-11T11:40:03.629Z,9.78
2023-01-11T11:42:32.263Z,9.80
2023-01-11T11:45:17.006Z,9.86
2023-01-11T11:48:02.336Z,9.87
2023-01-11T11:50:44.329Z,9.86
2023-01-11T11:53:27.712Z,9.86
2023-01-11T11:55:56.573Z,9.90
2023-01-11T11:58:26.913Z,9.85
2023-01-11T12:00:55.847Z,9.84
2023-01-11T12:03:30.300Z,9.81
2023-01-11T12:06:02.711Z,9.84
2023-01-11T12:08:33.035Z,9.82
2023-01-11T12:11:03.845Z,9.80
2023-01-11T12:13:34.817Z,9.85
2023-01-11T12:16:07.463Z,9.82
2023-01-11T12:18:42.829Z,9.80
2023-01-11T12:21:20.067Z,9.77
2023-01-11T12:23:49.178Z,9.79
2023-01-11T12:26:24.676Z,9.78
2023-01-11T12:29:25.809Z,9.74
2023-01-11T12:32:12.602Z,9.78
2023-01-11T12:35:01.851Z,9.75
2023-01-11T12:37:46.480Z,9.76
2023-01-11T12:40:20.879Z,9.76
2023-01-11T12:43:01.181Z,9.76
2023-01-11T12:45:36.698Z,9.79
2023-01-11T12:48:24.171Z,9.83
2023-01-11T12:51:06.887Z,9.81
2023-01-11T12:53:47.464Z,9.82
2023-01-11T12:56:49.761Z,9.83
2023-01-11T12:59:30.558Z,9.83
2023-01-11T13:02:04.365Z,9.82
2023-01-11T13:04:52.453Z,9.78
2023-01-11T13:07:31.792Z,9.79
2023-01-11T13:10:13.441Z,9.79
2023-01-11T13:12:46.556Z,9.72
2023-01-11T13:15:30.135Z,9.70
2023-01-11T13:18:02.621Z,9.67
2023-01-11T13:20:58.841Z,9.68
2023-01-11T13:23:34.503Z,9.71
2023-01-11T13:26:18.028Z,9.71
2023-01-11T13:28:51.541Z,9.74
2023-01-11T13:31:20.766Z,9.76
2023-01-11T13:33:53.908Z,9.74
2023-01-11T13:36:25.915Z,9.70
2023-01-11T13:38:59.753Z,9.74
2023-01-11T13:41:34.421Z,9.72
2023-01-11T13:44:05.322Z,9.76
2023-01-11T13:46:46.643Z,9.70
2023-01-11T13:49:25.078Z,9.72
2023-01-11T13:51:55.299Z,9.75
2023-01-11T13:54:28.129Z,9.67
2023-01-11T13:57:02.169Z,9.66
2023-01-11T13:59:34.251Z,9.72
2023-01-11T14:02:06.277Z,9.80
2023-01-11T14:04:44.313Z,9.85
2023-01-11T14:07:22.265Z,9.79
2023-01-11T14:10:04.803Z,9.94
2023-01-11T14:12:44.384Z,9.89
2023-01-11T14:15:26.410Z,9.91
2023-01-11T14:18:18.732Z,9.92
2023-01-11T14:21:00.487Z,9.85
2023-01-11T14:23:36.231Z,9.86
2023-01-11T14:26:32.386Z,9.66
2023-01-11T14:29:17.117Z,9.56
2023-01-11T14:32:07.065Z,9.52
2023-01-11T14:35:09.556Z,9.45
2023-01-11T14:38:07.129Z,9.51
2023-01-11T14:40:49.211Z,9.51
2023-01-11T14:43:59.764Z,9.52
2023-01-11T14:46:53.357Z,9.57
2023-01-11T14:49:34.868Z,9.48
2023-01-11T14:52:04.996Z,9.46
2023-01-11T14:54:35.651Z,9.47
2023-01-11T14:57:07.784Z,9.44
2023-01-11T14:59:39.347Z,9.48
2023-01-11T15:02:29.804Z,9.37
2023-01-11T15:05:10.173Z,9.38
2023-01-11T15:07:42.241Z,9.50
2023-01-11T15:10:56.522Z,9.41
2023-01-11T15:13:26.877Z,9.44
2023-01-11T15:16:26.346Z,9.33
2023-01-11T15:18:56.905Z,9.23
2023-01-11T15:21:27.152Z,9.31
2023-01-11T15:23:57.876Z,9.35
2023-01-11T15:26:28.095Z,9.39
2023-01-11T15:28:58.533Z,9.33
2023-01-11T15:31:34.415Z,9.38
2023-01-11T15:34:06.871Z,9.20
2023-01-11T15:37:20.598Z,9.16
2023-01-11T15:39:55.176Z,9.14
2023-01-11T15:43:03.252Z,9.05
2023-01-11T15:46:24.612Z,9.17
2023-01-11T15:49:13.977Z,9.12
2023-01-11T15:52:01.452Z,9.16
2023-01-11T15:54:53.497Z,9.13
2023-01-11T15:57:39.735Z,9.24
2023-01-11T16:00:25.796Z,9.18
2023-01-11T16:03:26.000Z,9.06
2023-01-11T16:06:03.325Z,9.05
2023-01-11T16:08:37.055Z,8.98
2023-01-11T16:11:14.298Z,8.90
2023-01-11T16:13:54.933Z,9.03
2023-01-11T16:16:26.864Z,8.81
2023-01-11T16:18:58.123Z,8.83
2023-01-11T16:21:33.694Z,8.86
2023-01-11T16:24:05.078Z,8.87
2023-01-11T16:26:35.228Z,8.87
2023-01-11T16:29:07.934Z,8.80
2023-01-11T16:31:51.938Z,8.85
2023-01-11T16:34:20.836Z,8.84
2023-01-11T16:36:50.922Z,8.83
2023-01-11T16:39:22.247Z,8.75
2023-01-11T16:41:55.071Z,8.78
2023-01-11T16:44:35.209Z,8.79
2023-01-11T16:47:11.268Z,8.71
2023-01-11T16:49:40.915Z,8.77
2023-01-11T16:52:37.659Z,8.70
2023-01-11T16:55:23.150Z,8.70
2023-01-11T16:57:55.156Z,8.70
2023-01-11T17:00:28.876Z,8.70
2023-01-11T17:03:18.930Z,8.75
2023-01-11T17:06:27.334Z,8.68
2023-01-11T17:09:00.022Z,8.77
2023-01-11T17:11:31.763Z,8.68
2023-01-11T17:14:15.125Z,8.62
2023-01-11T17:16:45.888Z,8.64
2023-01-11T17:19:17.183Z,8.58
2023-01-11T17:21:50.998Z,8.54
2023-01-11T17:24:24.946Z,8.54
2023-01-11T17:26:56.915Z,8.52
2023-01-11T17:29:30.065Z,8.45
2023-01-11T17:32:00.130Z,8.44
2023-01-11T17:34:31.891Z,8.49
2023-01-11T17:37:00.779Z,8.41
2023-01-11T17:39:33.258Z,8.44
2023-01-11T17:42:21.254Z,8.49
2023-01-11T17:45:08.812Z,8.55
2023-01-11T17:47:39.641Z,8.63
2023-01-11T17:50:17.815Z,8.66
2023-01-11T17:52:54.665Z,8.68
2023-01-11T17:55:26.195Z,8.64
2023-01-11T17:58:19.765Z,8.55
2023-01-11T18:01:15.130Z,8.44
2023-01-11T18:03:45.444Z,8.40
2023-01-11T18:06:22.328Z,8.25
2023-01-11T18:08:53.111Z,8.14
2023-01-11T18:11:29.113Z,8.01
2023-01-11T18:14:00.815Z,7.92
2023-01-11T18:16:30.067Z,7.74
2023-01-11T18:19:04.989Z,7.79
2023-01-11T18:21:41.337Z,7.62
2023-01-11T18:24:34.736Z,7.66
2023-01-11T18:27:17.290Z,7.53
2023-01-11T18:29:51.270Z,7.44
2023-01-11T18:32:20.366Z,7.40
2023-01-11T18:34:52.524Z,7.44
2023-01-11T18:37:21.808Z,7.50
2023-01-11T18:39:52.455Z,7.54
2023-01-11T18:42:25.898Z,7.56
2023-01-11T18:44:54.691Z,7.50
2023-01-11T18:47:24.775Z,7.59
2023-01-11T18:49:54.267Z,7.58
2023-01-11T18:52:27.489Z,7.56
2023-01-11T18:54:56.626Z,7.47
2023-01-11T18:57:26.658Z,7.41
2023-01-11T18:59:55.521Z,7.31
2023-01-11T19:02:26.447Z,7.35
2023-01-11T19:04:56.119Z,7.32
2023-01-11T19:07:25.638Z,7.27
2023-01-11T19:09:55.431Z,7.25
2023-01-11T19:12:26.038Z,7.24
2023-01-11T19:14:54.710Z,7.24
2023-01-11T19:17:23.403Z,7.25
2023-01-11T19:19:52.033Z,7.23
2023-01-11T19:22:23.401Z,7.21
2023-01-11T19:24:55.038Z,7.24
2023-01-11T19:27:24.295Z,7.23
2023-01-11T19:29:57.553Z,7.20
2023-01-11T19:32:28.966Z,7.19
2023-01-11T19:34:58.274Z,7.18
2023-01-11T19:37:27.764Z,7.16
2023-01-11T19:39:56.698Z,7.15
2023-01-11T19:42:25.380Z,7.14
2023-01-11T19:44:55.936Z,7.13
2023-01-11T19:47:24.598Z,7.14
2023-01-11T19:49:56.484Z,7.22
2023-01-11T19:52:25.302Z,7.24
2023-01-11T19:54:55.170Z,7.19
2023-01-11T19:57:23.883Z,7.22
2023-01-11T19:59:53.864Z,7.26
2023-01-11T20:02:23.068Z,7.16
2023-01-11T20:04:51.751Z,7.08
2023-01-11T20:07:20.497Z,7.09
2023-01-11T20:09:49.173Z,7.06
2023-01-11T20:12:17.829Z,7.07
2023-01-11T20:14:46.715Z,7.01
2023-01-11T20:17:20.878Z,7.02
2023-01-11T20:19:54.471Z,6.99
2023-01-11T20:22:23.617Z,6.95
2023-01-11T20:24:52.343Z,6.94
2023-01-11T20:27:21.129Z,6.94
2023-01-11T20:29:49.967Z,6.88
2023-01-11T20:32:39.692Z,6.85
2023-01-11T20:35:09.977Z,6.81
2023-01-11T20:37:38.822Z,6.82
2023-01-11T20:40:08.963Z,6.80
2023-01-11T20:42:37.571Z,6.76
2023-01-11T20:45:07.201Z,6.77
2023-01-11T20:47:41.287Z,6.73
2023-01-11T20:50:11.341Z,6.71
2023-01-11T20:52:40.607Z,6.72
2023-01-11T20:55:11.695Z,6.70
2023-01-11T20:57:46.476Z,6.61
2023-01-11T21:00:15.948Z,6.59
2023-01-11T21:02:45.998Z,6.51
2023-01-11T21:05:14.994Z,6.51
2023-01-11T21:07:43.662Z,6.47
2023-01-11T21:10:13.009Z,6.45
2023-01-11T21:12:41.748Z,6.43
2023-01-11T21:15:11.056Z,6.40
2023-01-11T21:17:39.813Z,6.42
2023-01-11T21:20:11.348Z,6.47
2023-01-11T21:22:40.130Z,6.45
2023-01-11T21:25:09.969Z,6.50
2023-01-11T21:27:38.922Z,6.47
2023-01-11T21:30:08.759Z,6.42
2023-01-11T21:32:37.366Z,6.38
2023-01-11T21:35:06.708Z,6.33
2023-01-11T21:37:36.833Z,6.26
2023-01-11T21:40:06.284Z,6.25
2023-01-11T21:42:34.976Z,6.18
2023-01-11T21:45:05.257Z,6.11
2023-01-11T21:47:34.188Z,6.09
2023-01-11T21:50:03.002Z,6.04
2023-01-11T21:52:31.801Z,6.04
2023-01-11T21:55:02.544Z,5.97
2023-01-11T21:57:31.295Z,5.95
2023-01-11T21:59:59.943Z,5.85
2023-01-11T22:02:28.546Z,5.86
2023-01-11T22:04:57.801Z,5.79
2023-01-11T22:07:27.568Z,5.77
2023-01-11T22:10:04.625Z,5.77
2023-01-11T22:12:35.982Z,5.73
2023-01-11T22:15:04.934Z,5.75
2023-01-11T22:17:33.661Z,5.71
2023-01-11T22:20:02.437Z,5.68
2023-01-11T22:22:31.133Z,5.70
2023-01-11T22:24:59.697Z,5.71
2023-01-11T22:27:28.360Z,5.73
2023-01-11T22:29:58.454Z,5.76
2023-01-11T22:32:27.267Z,5.73
2023-01-11T22:34:55.859Z,5.75
2023-01-11T22:37:24.718Z,5.75
2023-01-11T22:39:53.289Z,5.73
2023-01-11T22:42:22.008Z,5.72
2023-01-11T22:44:53.346Z,5.72
2023-01-11T22:47:23.382Z,5.71
2023-01-11T22:49:54.101Z,5.66
2023-01-11T22:52:22.814Z,5.63
2023-01-11T22:54:51.534Z,5.63
2023-01-11T22:57:20.297Z,5.60
2023-01-11T22:59:48.958Z,5.64
2023-01-11T23:02:17.645Z,5.63
2023-01-11T23:04:47.646Z,5.66
2023-01-11T23:07:16.252Z,5.76
2023-01-11T23:09:44.995Z,5.74
2023-01-11T23:12:30.980Z,5.85
2023-01-11T23:14:59.607Z,5.84
2023-01-11T23:17:28.210Z,5.80
2023-01-11T23:19:58.193Z,5.75
2023-01-11T23:22:26.898Z,5.64
2023-01-11T23:24:55.604Z,5.63
2023-01-11T23:27:24.461Z,5.61
2023-01-11T23:29:53.576Z,5.55
2023-01-11T23:32:22.470Z,5.53
2023-01-11T23:34:51.426Z,5.49
2023-01-11T23:37:21.367Z,5.48
2023-01-11T23:39:49.929Z,5.45
2023-01-11T23:42:26.701Z,5.48
2023-01-11T23:44:55.519Z,5.43
2023-01-11T23:47:25.046Z,5.42
2023-01-11T23:49:54.847Z,5.42
2023-01-11T23:52:26.782Z,5.41
2023-01-11T23:54:55.505Z,5.42
2023-01-11T23:57:25.408Z,5.40
2023-01-11T23:59:54.348Z,5.39
